createdAt,value
2018-02-20T00:00:35.265Z,0
2018-02-20T00:01:44.089Z,0
2018-02-20T00:02:52.917Z,0
2018-02-20T00:04:01.741Z,0
2018-02-20T00:05:10.967Z,0
2018-02-20T00:06:19.793Z,0
2018-02-20T00:07:28.617Z,0
2018-02-20T00:08:37.442Z,0
2018-02-20T00:09:46.274Z,0
2018-02-20T00:10:55.376Z,0
2018-02-20T00:12:04.204Z,0
2018-02-20T00:13:13.026Z,0
2018-02-20T00:14:21.853Z,0
2018-02-20T00:15:30.677Z,0
2018-02-20T00:16:40.158Z,0
2018-02-20T00:17:48.981Z,0
2018-02-20T00:18:57.806Z,0
2018-02-20T00:20:06.631Z,0
2018-02-20T00:21:15.457Z,0
2018-02-20T00:22:24.838Z,0
2018-02-20T00:23:33.661Z,0
2018-02-20T00:24:42.489Z,0
2018-02-20T00:25:51.590Z,0
2018-02-20T00:27:00.690Z,0
2018-02-20T00:28:09.717Z,0
2018-02-20T00:29:18.546Z,0
2018-02-20T00:30:27.374Z,0
2018-02-20T00:31:36.196Z,0
2018-02-20T00:32:45.022Z,0
2018-02-20T00:33:53.948Z,0
2018-02-20T00:35:02.772Z,0
2018-02-20T00:36:11.604Z,0
2018-02-20T00:37:20.430Z,0
2018-02-20T00:38:29.531Z,0
2018-02-20T00:39:38.508Z,0
2018-02-20T00:40:47.334Z,0
2018-02-20T00:41:56.437Z,0
2018-02-20T00:43:05.261Z,0
2018-02-20T00:44:14.087Z,0
2018-02-20T00:45:22.914Z,0
2018-02-20T00:46:31.738Z,0
2018-02-20T00:47:40.562Z,0
2018-02-20T00:48:49.385Z,0
2018-02-20T00:49:58.211Z,0
2018-02-20T00:51:07.134Z,0
2018-02-20T00:52:15.955Z,0
2018-02-20T00:53:24.785Z,0
2018-02-20T00:54:33.604Z,0
2018-02-20T00:55:42.429Z,0
2018-02-20T00:56:51.555Z,0
2018-02-20T00:58:00.379Z,0
2018-02-20T00:59:09.205Z,0
2018-02-20T01:00:18.030Z,0
2018-02-20T01:01:27.136Z,0
2018-02-20T01:02:36.106Z,0
2018-02-20T01:03:45.490Z,0
2018-02-20T01:04:54.590Z,0
2018-02-20T01:06:03.413Z,0
2018-02-20T01:07:12.238Z,0
2018-02-20T01:08:21.062Z,0
2018-02-20T01:09:29.882Z,0
2018-02-20T01:10:38.708Z,0
2018-02-20T01:11:47.532Z,0
2018-02-20T01:12:56.359Z,0
2018-02-20T01:14:05.486Z,0
2018-02-20T01:15:14.311Z,0
2018-02-20T01:16:23.134Z,0
2018-02-20T01:17:32.240Z,0
2018-02-20T01:18:41.070Z,0
2018-02-20T01:19:50.196Z,0
2018-02-20T01:20:59.018Z,0
2018-02-20T01:22:07.845Z,0
2018-02-20T01:23:16.665Z,0
2018-02-20T01:24:25.490Z,0
2018-02-20T01:25:34.469Z,0
2018-02-20T01:26:43.292Z,0
2018-02-20T01:27:52.113Z,0
2018-02-20T01:29:00.936Z,0
2018-02-20T01:30:09.763Z,0
2018-02-20T01:31:18.739Z,0
2018-02-20T01:32:27.566Z,0
2018-02-20T01:33:36.389Z,0
2018-02-20T01:34:45.214Z,0
2018-02-20T01:35:54.040Z,0
2018-02-20T01:37:03.163Z,0
2018-02-20T01:38:11.988Z,0
2018-02-20T01:39:20.811Z,0
2018-02-20T01:40:29.639Z,0
2018-02-20T01:41:38.460Z,0
2018-02-20T01:42:47.334Z,0
2018-02-20T01:43:56.159Z,0
2018-02-20T01:45:04.985Z,0
2018-02-20T01:46:13.809Z,0
2018-02-20T01:47:22.633Z,0
2018-02-20T01:48:31.509Z,0
2018-02-20T01:49:40.333Z,0
2018-02-20T01:50:49.158Z,0
2018-02-20T01:51:57.977Z,0
2018-02-20T01:53:06.803Z,0
2018-02-20T01:54:15.905Z,0
2018-02-20T01:55:25.006Z,0
2018-02-20T01:56:33.830Z,0
2018-02-20T01:57:42.654Z,0
2018-02-20T01:58:51.479Z,0
2018-02-20T02:00:00.454Z,0
2018-02-20T02:01:09.278Z,0
2018-02-20T02:02:18.103Z,0
2018-02-20T02:03:26.935Z,0
2018-02-20T02:04:36.032Z,0
2018-02-20T02:05:44.906Z,0
2018-02-20T02:06:54.012Z,0
2018-02-20T02:08:02.832Z,0
2018-02-20T02:09:11.658Z,0
2018-02-20T02:10:20.483Z,0
2018-02-20T02:11:29.359Z,0
2018-02-20T02:12:38.186Z,0
2018-02-20T02:13:47.012Z,0
2018-02-20T02:14:55.832Z,0
2018-02-20T02:16:04.656Z,0
2018-02-20T02:17:13.759Z,0
2018-02-20T02:18:22.584Z,0
2018-02-20T02:19:31.406Z,0
2018-02-20T02:20:40.232Z,0
2018-02-20T02:21:49.057Z,0
2018-02-20T02:22:57.933Z,0
2018-02-20T02:24:06.765Z,0
2018-02-20T02:25:15.859Z,0
2018-02-20T02:26:24.683Z,0
2018-02-20T02:27:33.508Z,0
2018-02-20T02:28:42.329Z,0
2018-02-20T02:29:51.157Z,0
2018-02-20T02:30:59.979Z,0
2018-02-20T02:32:08.806Z,0
2018-02-20T02:33:17.905Z,0
2018-02-20T02:34:27.028Z,0
2018-02-20T02:35:35.858Z,0
2018-02-20T02:36:44.681Z,0
2018-02-20T02:37:53.506Z,0
2018-02-20T02:39:02.328Z,0
2018-02-20T02:40:11.304Z,0
2018-02-20T02:41:20.126Z,0
2018-02-20T02:42:28.952Z,0
2018-02-20T02:43:37.776Z,0
2018-02-20T02:44:47.158Z,0
2018-02-20T02:45:56.132Z,0
2018-02-20T02:47:04.960Z,0
2018-02-20T02:48:13.781Z,0
2018-02-20T02:49:22.604Z,0
2018-02-20T02:50:31.430Z,0
2018-02-20T02:51:40.557Z,0
2018-02-20T02:52:49.655Z,0
2018-02-20T02:53:58.487Z,0
2018-02-20T02:55:07.588Z,0
2018-02-20T02:56:16.414Z,0
2018-02-20T02:57:25.240Z,0
2018-02-20T02:58:34.343Z,0
2018-02-20T02:59:43.453Z,0
2018-02-20T03:00:52.275Z,0
2018-02-20T03:02:01.104Z,0
2018-02-20T03:03:10.255Z,0
2018-02-20T03:04:19.080Z,0
2018-02-20T03:05:27.904Z,0
2018-02-20T03:06:36.728Z,0
2018-02-20T03:07:45.552Z,0
2018-02-20T03:08:54.653Z,0
2018-02-20T03:10:03.750Z,0
2018-02-20T03:11:12.858Z,0
2018-02-20T03:12:21.955Z,0
2018-02-20T03:13:30.782Z,0
2018-02-20T03:14:39.654Z,0
2018-02-20T03:15:48.482Z,0
2018-02-20T03:16:57.305Z,0
2018-02-20T03:18:06.126Z,0
2018-02-20T03:19:15.231Z,0
2018-02-20T03:20:24.053Z,0
2018-02-20T03:21:32.878Z,0
2018-02-20T03:22:41.704Z,0
2018-02-20T03:23:50.529Z,0
2018-02-20T03:24:59.353Z,0
2018-02-20T03:26:08.227Z,0
2018-02-20T03:27:17.051Z,0
2018-02-20T03:28:25.878Z,0
2018-02-20T03:29:34.705Z,0
2018-02-20T03:30:43.529Z,0
2018-02-20T03:31:52.400Z,0
2018-02-20T03:33:01.227Z,0
2018-02-20T03:34:10.050Z,0
2018-02-20T03:35:18.874Z,0
2018-02-20T03:36:27.703Z,0
2018-02-20T03:37:36.902Z,0
2018-02-20T03:38:45.724Z,0
2018-02-20T03:39:54.548Z,0
2018-02-20T03:41:03.371Z,0
2018-02-20T03:42:12.197Z,0
2018-02-20T03:43:21.273Z,0
2018-02-20T03:44:30.093Z,0
2018-02-20T03:45:38.917Z,0
2018-02-20T03:46:47.740Z,0
2018-02-20T03:47:56.566Z,0
2018-02-20T03:49:05.540Z,0
2018-02-20T03:50:14.362Z,0
2018-02-20T03:51:23.188Z,0
2018-02-20T03:52:32.013Z,0
2018-02-20T03:53:40.840Z,0
2018-02-20T03:54:49.966Z,0
2018-02-20T03:55:58.789Z,0
2018-02-20T03:57:07.613Z,0
2018-02-20T03:58:16.440Z,0
2018-02-20T03:59:25.538Z,0
2018-02-20T04:00:34.764Z,0
2018-02-20T04:01:43.591Z,0
2018-02-20T04:02:52.415Z,0
2018-02-20T04:04:01.245Z,0
2018-02-20T04:05:10.343Z,0
2018-02-20T04:06:19.442Z,0
2018-02-20T04:07:28.265Z,0
2018-02-20T04:08:37.088Z,0
2018-02-20T04:09:45.917Z,0
2018-02-20T04:10:55.014Z,0
2018-02-20T04:12:03.888Z,0
2018-02-20T04:13:12.711Z,0
2018-02-20T04:14:21.535Z,0
2018-02-20T04:15:30.358Z,0
2018-02-20T04:16:39.181Z,0
2018-02-20T04:17:48.007Z,0
2018-02-20T04:18:56.830Z,0
2018-02-20T04:20:05.929Z,0
2018-02-20T04:21:14.752Z,0
2018-02-20T04:22:23.576Z,0
2018-02-20T04:23:32.458Z,0
2018-02-20T04:24:41.277Z,0
2018-02-20T04:25:50.101Z,0
2018-02-20T04:26:58.925Z,0
2018-02-20T04:28:07.748Z,0
2018-02-20T04:29:16.673Z,0
2018-02-20T04:30:25.497Z,0
2018-02-20T04:31:34.319Z,0
2018-02-20T04:32:43.142Z,0
2018-02-20T04:33:52.319Z,0
2018-02-20T04:35:01.294Z,0
2018-02-20T04:36:10.125Z,0
2018-02-20T04:37:19.228Z,0
2018-02-20T04:38:28.333Z,0
2018-02-20T04:39:37.152Z,0
2018-02-20T04:40:46.025Z,0
2018-02-20T04:41:55.126Z,0
2018-02-20T04:43:03.951Z,0
2018-02-20T04:44:12.775Z,0
2018-02-20T04:45:21.597Z,0
2018-02-20T04:46:30.522Z,0
2018-02-20T04:47:39.346Z,0
2018-02-20T04:48:48.172Z,0
2018-02-20T04:49:56.997Z,0
2018-02-20T04:51:05.816Z,0
2018-02-20T04:52:14.940Z,0
2018-02-20T04:53:23.764Z,0
2018-02-20T04:54:32.592Z,0
2018-02-20T04:55:41.415Z,0
2018-02-20T04:56:50.240Z,0
2018-02-20T04:57:59.164Z,0
2018-02-20T04:59:07.988Z,0
2018-02-20T05:00:16.814Z,0
2018-02-20T05:01:25.637Z,0
2018-02-20T05:02:34.460Z,0
2018-02-20T05:03:43.436Z,0
2018-02-20T05:04:52.257Z,0
2018-02-20T05:06:01.081Z,0
2018-02-20T05:07:09.906Z,0
2018-02-20T05:08:18.728Z,0
2018-02-20T05:09:27.852Z,0
2018-02-20T05:10:36.677Z,0
2018-02-20T05:11:45.500Z,0
2018-02-20T05:12:54.324Z,0
2018-02-20T05:14:03.149Z,0
2018-02-20T05:15:12.173Z,0
2018-02-20T05:16:21.001Z,0
2018-02-20T05:17:29.820Z,0
2018-02-20T05:18:38.642Z,0
2018-02-20T05:19:47.465Z,0
2018-02-20T05:20:56.489Z,0
2018-02-20T05:22:05.310Z,0
2018-02-20T05:23:14.134Z,0
2018-02-20T05:24:22.957Z,0
2018-02-20T05:25:31.786Z,0
2018-02-20T05:26:41.189Z,0
2018-02-20T05:27:50.009Z,0
2018-02-20T05:28:58.835Z,0
2018-02-20T05:30:07.940Z,0
2018-02-20T05:31:16.765Z,0
2018-02-20T05:32:25.636Z,0
2018-02-20T05:33:34.467Z,0
2018-02-20T05:34:43.291Z,0
2018-02-20T05:35:52.114Z,0
2018-02-20T05:37:00.937Z,0
2018-02-20T05:38:09.820Z,0
2018-02-20T05:39:18.921Z,0
2018-02-20T05:40:27.744Z,0
2018-02-20T05:41:36.570Z,0
2018-02-20T05:42:45.392Z,0
2018-02-20T05:43:54.217Z,0
2018-02-20T05:45:03.044Z,0
2018-02-20T05:46:11.872Z,0
2018-02-20T05:47:20.709Z,0
2018-02-20T05:48:29.532Z,0
2018-02-20T05:49:38.354Z,0
2018-02-20T05:50:47.454Z,0
2018-02-20T05:51:56.277Z,0
2018-02-20T05:53:05.100Z,0
2018-02-20T05:54:13.924Z,0
2018-02-20T05:55:22.744Z,0
2018-02-20T05:56:31.569Z,0
2018-02-20T05:57:40.668Z,0
2018-02-20T05:58:49.492Z,0
2018-02-20T05:59:58.316Z,0
2018-02-20T06:01:07.146Z,0
2018-02-20T06:02:15.967Z,0
2018-02-20T06:03:24.790Z,0
2018-02-20T06:04:33.613Z,0
2018-02-20T06:05:42.438Z,4
2018-02-20T06:06:51.274Z,4
2018-02-20T06:08:00.099Z,0
2018-02-20T06:09:08.969Z,4
2018-02-20T06:10:17.792Z,4
2018-02-20T06:11:26.617Z,4
2018-02-20T06:12:35.440Z,8
2018-02-20T06:13:44.265Z,8
2018-02-20T06:14:53.092Z,8
2018-02-20T06:16:02.193Z,8
2018-02-20T06:17:11.017Z,12
2018-02-20T06:18:20.116Z,12
2018-02-20T06:19:29.218Z,16
2018-02-20T06:20:38.373Z,20
2018-02-20T06:21:47.196Z,24
2018-02-20T06:22:56.020Z,28
2018-02-20T06:24:04.846Z,32
2018-02-20T06:25:13.947Z,36
2018-02-20T06:26:22.772Z,40
2018-02-20T06:27:31.878Z,48
2018-02-20T06:28:40.702Z,52
2018-02-20T06:29:49.525Z,60
2018-02-20T06:30:58.350Z,72
2018-02-20T06:32:07.275Z,80
2018-02-20T06:33:16.118Z,84
2018-02-20T06:34:24.943Z,96
2018-02-20T06:35:33.767Z,104
2018-02-20T06:36:42.594Z,112
2018-02-20T06:37:51.466Z,128
2018-02-20T06:39:00.568Z,136
2018-02-20T06:40:09.668Z,148
2018-02-20T06:41:18.493Z,164
2018-02-20T06:42:27.315Z,176
2018-02-20T06:43:36.438Z,188
2018-02-20T06:44:45.262Z,204
2018-02-20T06:45:54.363Z,216
2018-02-20T06:47:03.187Z,232
2018-02-20T06:48:12.009Z,248
2018-02-20T06:49:21.208Z,264
2018-02-20T06:50:30.256Z,276
2018-02-20T06:51:39.152Z,292
2018-02-20T06:52:48.223Z,304
2018-02-20T06:53:57.168Z,324
2018-02-20T06:55:35.773Z,340
2018-02-20T06:56:44.653Z,356
2018-02-20T06:57:53.536Z,372
2018-02-20T06:59:02.440Z,388
2018-02-20T07:00:11.748Z,400
2018-02-20T07:01:20.741Z,420
2018-02-20T07:02:29.638Z,432
2018-02-20T07:03:38.461Z,448
2018-02-20T07:04:47.284Z,464
2018-02-20T07:05:56.157Z,480
2018-02-20T07:07:04.979Z,492
2018-02-20T07:08:13.803Z,508
2018-02-20T07:09:22.629Z,528
2018-02-20T07:10:31.453Z,544
2018-02-20T07:11:40.578Z,560
2018-02-20T07:12:49.403Z,572
2018-02-20T07:13:58.228Z,584
2018-02-20T07:15:07.051Z,604
2018-02-20T07:16:16.149Z,616
2018-02-20T07:17:25.171Z,632
2018-02-20T07:18:33.996Z,648
2018-02-20T07:19:42.822Z,664
2018-02-20T07:20:51.645Z,680
2018-02-20T07:22:00.470Z,696
2018-02-20T07:23:09.452Z,712
2018-02-20T07:24:18.217Z,728
2018-02-20T07:25:27.041Z,744
2018-02-20T07:26:35.864Z,760
2018-02-20T07:27:44.692Z,776
2018-02-20T07:28:53.840Z,788
2018-02-20T07:30:02.665Z,804
2018-02-20T07:31:11.486Z,820
2018-02-20T07:32:20.311Z,836
2018-02-20T07:33:29.138Z,852
2018-02-20T07:34:38.062Z,868
2018-02-20T07:35:46.884Z,880
2018-02-20T07:36:55.710Z,884
2018-02-20T07:38:04.533Z,896
2018-02-20T07:39:13.358Z,908
2018-02-20T07:40:22.334Z,912
2018-02-20T07:41:31.440Z,920
2018-02-20T07:42:40.544Z,936
2018-02-20T07:43:49.644Z,952
2018-02-20T07:44:58.467Z,972
2018-02-20T07:46:07.390Z,988
2018-02-20T07:47:16.213Z,1004
2018-02-20T07:48:25.037Z,1016
2018-02-20T07:49:33.859Z,1028
2018-02-20T07:50:42.683Z,1040
2018-02-20T07:51:51.556Z,1052
2018-02-20T07:53:00.385Z,1064
2018-02-20T07:54:09.211Z,1068
2018-02-20T07:55:18.037Z,1076
2018-02-20T07:56:26.862Z,1080
2018-02-20T07:57:35.735Z,1088
2018-02-20T07:58:44.561Z,1088
2018-02-20T07:59:53.387Z,1092
2018-02-20T08:01:02.218Z,1096
2018-02-20T08:02:11.321Z,1100
2018-02-20T08:03:20.143Z,1104
2018-02-20T08:04:28.972Z,1116
2018-02-20T08:05:37.796Z,1124
2018-02-20T08:06:46.619Z,1140
2018-02-20T08:07:55.443Z,1148
2018-02-20T08:09:04.269Z,1160
2018-02-20T08:10:13.093Z,1168
2018-02-20T08:11:21.920Z,1176
2018-02-20T08:12:30.743Z,1184
2018-02-20T08:13:39.843Z,1188
2018-02-20T08:14:48.672Z,1196
2018-02-20T08:15:57.773Z,1204
2018-02-20T08:17:06.598Z,1216
2018-02-20T08:18:15.426Z,1224
2018-02-20T08:19:24.248Z,1236
2018-02-20T08:20:33.075Z,1248
2018-02-20T08:21:42.182Z,1260
2018-02-20T08:22:51.007Z,1264
2018-02-20T08:23:59.832Z,1272
2018-02-20T08:25:08.656Z,1276
2018-02-20T08:26:17.782Z,1276
2018-02-20T08:27:26.608Z,1284
2018-02-20T08:28:35.431Z,1300
2018-02-20T08:29:44.276Z,1308
2018-02-20T08:30:53.084Z,1316
2018-02-20T08:32:01.963Z,1320
2018-02-20T08:33:11.065Z,1324
2018-02-20T08:34:19.893Z,1328
2018-02-20T08:35:28.721Z,1336
2018-02-20T08:36:37.546Z,1340
2018-02-20T08:37:46.621Z,1348
2018-02-20T08:38:55.452Z,1356
2018-02-20T08:40:04.276Z,1356
2018-02-20T08:41:13.378Z,1364
2018-02-20T08:42:22.206Z,1368
2018-02-20T08:43:31.334Z,1376
2018-02-20T08:44:40.162Z,1380
2018-02-20T08:45:48.986Z,1384
2018-02-20T08:46:57.812Z,1392
2018-02-20T08:48:06.641Z,1404
2018-02-20T08:49:15.517Z,1412
2018-02-20T08:50:24.344Z,1420
2018-02-20T08:51:33.167Z,1436
2018-02-20T08:52:41.995Z,1444
2018-02-20T08:53:50.820Z,1444
2018-02-20T08:54:59.748Z,1452
2018-02-20T08:56:08.574Z,1460
2018-02-20T08:57:17.401Z,1464
2018-02-20T08:58:26.231Z,1468
2018-02-20T08:59:35.060Z,1472
2018-02-20T09:00:44.191Z,1472
2018-02-20T09:01:53.015Z,1476
2018-02-20T09:03:01.842Z,1484
2018-02-20T09:04:10.669Z,1496
2018-02-20T09:05:19.489Z,1496
2018-02-20T09:06:28.366Z,1504
2018-02-20T09:07:37.192Z,1512
2018-02-20T09:08:46.021Z,1520
2018-02-20T09:09:54.849Z,1520
2018-02-20T09:11:03.676Z,1516
2018-02-20T09:12:12.505Z,1528
2018-02-20T09:13:21.329Z,1528
2018-02-20T09:14:30.157Z,1532
2018-02-20T09:15:38.983Z,1544
2018-02-20T09:16:47.810Z,1556
2018-02-20T09:17:56.687Z,1568
2018-02-20T09:19:05.514Z,1572
2018-02-20T09:20:14.341Z,1588
2018-02-20T09:21:23.168Z,1596
2018-02-20T09:22:32.270Z,1596
2018-02-20T09:23:41.382Z,1604
2018-02-20T09:24:50.207Z,1612
2018-02-20T09:25:59.089Z,1616
2018-02-20T09:27:07.855Z,1620
2018-02-20T09:28:16.683Z,1636
2018-02-20T09:29:25.663Z,1640
2018-02-20T09:30:34.488Z,1652
2018-02-20T09:31:43.598Z,1672
2018-02-20T09:32:52.700Z,1680
2018-02-20T09:34:01.529Z,1696
2018-02-20T09:35:10.511Z,1704
2018-02-20T09:36:19.332Z,1720
2018-02-20T09:37:28.160Z,1724
2018-02-20T09:38:36.988Z,1740
2018-02-20T09:39:45.818Z,1748
2018-02-20T09:40:54.644Z,1764
2018-02-20T09:42:03.469Z,1784
2018-02-20T09:43:12.299Z,1792
2018-02-20T09:44:21.127Z,1784
2018-02-20T09:45:29.954Z,1804
2018-02-20T09:46:38.835Z,1808
2018-02-20T09:47:47.667Z,1812
2018-02-20T09:48:56.489Z,1820
2018-02-20T09:50:05.316Z,1836
2018-02-20T09:51:14.193Z,1864
2018-02-20T09:52:22.972Z,1876
2018-02-20T09:53:31.801Z,1884
2018-02-20T09:54:40.630Z,1884
2018-02-20T09:55:49.461Z,1896
2018-02-20T09:56:58.288Z,1912
2018-02-20T09:58:07.267Z,1920
2018-02-20T09:59:16.102Z,1920
2018-02-20T10:00:24.931Z,1920
2018-02-20T10:01:33.760Z,1932
2018-02-20T10:02:42.907Z,1944
2018-02-20T10:03:52.034Z,1932
2018-02-20T10:05:00.863Z,1944
2018-02-20T10:06:09.691Z,1960
2018-02-20T10:07:18.519Z,1972
2018-02-20T10:08:27.350Z,1988
2018-02-20T10:09:36.329Z,2020
2018-02-20T10:10:45.156Z,2032
2018-02-20T10:11:54.261Z,2052
2018-02-20T10:13:03.090Z,2064
2018-02-20T10:14:11.921Z,2064
2018-02-20T10:15:20.853Z,2080
2018-02-20T10:16:29.677Z,2100
2018-02-20T10:17:38.509Z,2124
2018-02-20T10:18:47.341Z,2136
2018-02-20T10:19:56.169Z,2144
2018-02-20T10:21:05.298Z,2168
2018-02-20T10:22:14.131Z,2164
2018-02-20T10:23:23.235Z,2168
2018-02-20T10:24:32.062Z,2212
2018-02-20T10:25:41.163Z,2232
2018-02-20T10:26:50.246Z,2236
2018-02-20T10:27:59.074Z,2260
2018-02-20T10:29:07.899Z,2256
2018-02-20T10:30:16.729Z,2248
2018-02-20T10:31:25.557Z,2240
2018-02-20T10:32:34.712Z,2264
2018-02-20T10:33:43.546Z,2272
2018-02-20T10:34:52.377Z,2316
2018-02-20T10:36:01.204Z,2344
2018-02-20T10:37:10.034Z,2360
2018-02-20T10:38:18.960Z,2396
2018-02-20T10:39:27.789Z,2376
2018-02-20T10:40:36.619Z,2376
2018-02-20T10:41:45.449Z,2396
2018-02-20T10:42:54.279Z,2392
2018-02-20T10:44:03.410Z,2448
2018-02-20T10:45:12.239Z,2488
2018-02-20T10:46:21.067Z,2480
2018-02-20T10:47:29.895Z,2464
2018-02-20T10:48:38.727Z,2556
2018-02-20T10:49:47.656Z,2632
2018-02-20T10:50:56.487Z,2656
2018-02-20T10:52:05.318Z,2640
2018-02-20T10:53:14.149Z,2700
2018-02-20T10:54:23.258Z,2780
2018-02-20T10:55:32.090Z,2824
2018-02-20T10:56:40.917Z,2720
2018-02-20T10:57:49.744Z,2736
2018-02-20T10:58:58.573Z,2736
2018-02-20T11:00:07.403Z,2768
2018-02-20T11:01:16.934Z,2772
2018-02-20T11:02:25.764Z,2660
2018-02-20T11:03:34.881Z,2724
2018-02-20T11:04:43.733Z,2788
2018-02-20T11:05:52.544Z,2792
2018-02-20T11:07:01.672Z,2892
2018-02-20T11:08:10.780Z,2908
2018-02-20T11:09:19.613Z,2948
2018-02-20T11:10:28.438Z,2964
2018-02-20T11:11:37.270Z,2988
2018-02-20T11:12:46.400Z,3000
2018-02-20T11:13:55.232Z,2956
2018-02-20T11:15:04.062Z,2876
2018-02-20T11:16:12.894Z,2940
2018-02-20T11:17:21.724Z,3036
2018-02-20T11:18:30.711Z,3100
2018-02-20T11:19:39.543Z,3072
2018-02-20T11:20:48.374Z,3076
2018-02-20T11:21:57.757Z,2984
2018-02-20T11:23:06.590Z,3204
2018-02-20T11:24:15.796Z,3300
2018-02-20T11:25:24.626Z,3352
2018-02-20T11:26:33.458Z,3164
2018-02-20T11:27:42.288Z,2888
2018-02-20T11:28:51.118Z,3128
2018-02-20T11:30:00.053Z,3076
2018-02-20T11:31:08.881Z,3316
2018-02-20T11:32:17.714Z,3520
2018-02-20T11:33:26.544Z,3456
2018-02-20T11:34:35.376Z,3452
2018-02-20T11:35:44.405Z,3448
2018-02-20T11:36:53.234Z,3604
2018-02-20T11:38:02.071Z,3744
2018-02-20T11:39:10.900Z,3788
2018-02-20T11:40:19.737Z,4844
2018-02-20T11:41:28.562Z,5132
2018-02-20T11:42:37.392Z,4804
2018-02-20T11:43:46.267Z,4824
2018-02-20T11:44:55.053Z,4920
2018-02-20T11:46:04.165Z,4948
2018-02-20T11:47:13.094Z,4856
2018-02-20T11:48:21.925Z,4876
2018-02-20T11:49:30.758Z,4832
2018-02-20T11:50:39.874Z,4936
2018-02-20T11:51:48.704Z,4728
2018-02-20T11:52:57.936Z,5056
2018-02-20T11:54:07.043Z,5152
2018-02-20T11:55:15.875Z,5212
2018-02-20T11:56:24.713Z,5004
2018-02-20T11:57:33.546Z,4900
2018-02-20T11:58:42.526Z,5000
2018-02-20T11:59:51.360Z,5320
2018-02-20T12:01:00.194Z,4868
2018-02-20T12:02:09.032Z,5056
2018-02-20T12:03:17.860Z,4844
2018-02-20T12:04:27.094Z,4664
2018-02-20T12:05:35.924Z,4688
2018-02-20T12:06:44.757Z,4512
2018-02-20T12:07:53.605Z,4572
2018-02-20T12:09:02.427Z,3832
2018-02-20T12:10:11.306Z,3884
2018-02-20T12:11:20.141Z,3988
2018-02-20T12:12:28.974Z,4472
2018-02-20T12:13:37.808Z,4420
2018-02-20T12:14:46.640Z,4568
2018-02-20T12:15:55.772Z,5268
2018-02-20T12:17:04.887Z,5428
2018-02-20T12:18:13.720Z,5792
2018-02-20T12:19:22.550Z,5592
2018-02-20T12:20:31.389Z,5644
2018-02-20T12:21:40.373Z,6720
2018-02-20T12:22:49.277Z,7708
2018-02-20T12:23:58.395Z,6296
2018-02-20T12:25:07.230Z,8692
2018-02-20T12:26:16.062Z,11504
2018-02-20T12:27:24.949Z,13192
2018-02-20T12:28:33.785Z,11832
2018-02-20T12:29:42.616Z,10988
2018-02-20T12:30:51.449Z,11048
2018-02-20T12:32:00.283Z,11860
2018-02-20T12:33:09.318Z,10340
2018-02-20T12:34:18.159Z,7072
2018-02-20T12:35:26.992Z,12772
2018-02-20T12:36:35.831Z,5432
2018-02-20T12:37:44.939Z,7304
2018-02-20T12:38:53.873Z,7540
2018-02-20T12:40:02.709Z,9544
2018-02-20T12:41:11.543Z,9332
2018-02-20T12:42:20.381Z,7852
2018-02-20T12:43:29.215Z,5932
2018-02-20T12:44:38.151Z,5620
2018-02-20T12:45:47.273Z,6128
2018-02-20T12:46:56.106Z,6160
2018-02-20T12:48:05.175Z,5228
2018-02-20T12:49:14.291Z,6828
2018-02-20T12:50:23.748Z,3904
2018-02-20T12:51:32.581Z,3988
2018-02-20T12:52:41.415Z,4048
2018-02-20T12:53:50.249Z,4148
2018-02-20T12:54:59.084Z,4524
2018-02-20T12:56:08.301Z,4972
2018-02-20T12:57:17.410Z,5152
2018-02-20T12:58:26.248Z,5544
2018-02-20T12:59:35.080Z,5504
2018-02-20T13:00:44.473Z,8344
2018-02-20T13:01:53.408Z,13856
2018-02-20T13:03:02.522Z,16800
2018-02-20T13:04:11.357Z,12308
2018-02-20T13:05:20.463Z,14560
2018-02-20T13:06:29.298Z,16352
2018-02-20T13:07:38.285Z,16352
2018-02-20T13:08:47.498Z,14304
2018-02-20T13:09:56.335Z,16576
2018-02-20T13:11:05.170Z,16896
2018-02-20T13:12:14.005Z,12008
2018-02-20T13:13:23.143Z,6208
2018-02-20T13:14:31.978Z,4896
2018-02-20T13:15:40.815Z,4544
2018-02-20T13:16:49.648Z,5308
2018-02-20T13:17:58.485Z,4788
2018-02-20T13:19:07.419Z,4856
2018-02-20T13:20:16.282Z,6584
2018-02-20T13:21:25.117Z,9760
2018-02-20T13:22:33.984Z,10016
2018-02-20T13:23:42.840Z,9024
2018-02-20T13:24:51.772Z,10524
2018-02-20T13:26:00.609Z,14944
2018-02-20T13:27:09.444Z,18656
2018-02-20T13:28:18.279Z,13320
2018-02-20T13:29:27.122Z,11336
2018-02-20T13:30:36.335Z,9660
2018-02-20T13:31:45.171Z,12688
2018-02-20T13:32:54.008Z,11980
2018-02-20T13:34:02.877Z,7932
2018-02-20T13:35:11.758Z,6268
2018-02-20T13:36:20.838Z,6472
2018-02-20T13:37:29.736Z,6772
2018-02-20T13:38:38.822Z,6792
2018-02-20T13:39:47.690Z,7240
2018-02-20T13:40:56.626Z,8168
2018-02-20T13:42:05.481Z,9440
2018-02-20T13:43:14.552Z,10988
2018-02-20T13:44:23.389Z,13228
2018-02-20T13:45:32.225Z,13332
2018-02-20T13:46:41.122Z,14592
2018-02-20T13:47:49.963Z,13184
2018-02-20T13:48:58.801Z,13024
2018-02-20T13:50:07.846Z,9756
2018-02-20T13:51:16.959Z,7724
2018-02-20T13:52:25.796Z,6368
2018-02-20T13:53:34.719Z,6004
2018-02-20T13:54:43.854Z,6844
2018-02-20T13:55:52.690Z,6228
2018-02-20T13:57:01.545Z,6144
2018-02-20T13:58:10.381Z,5504
2018-02-20T13:59:19.514Z,5156
2018-02-20T14:00:28.396Z,5188
2018-02-20T14:01:37.232Z,5544
2018-02-20T14:02:46.065Z,6252
2018-02-20T14:03:54.902Z,4944
2018-02-20T14:05:03.737Z,4940
2018-02-20T14:06:12.608Z,5168
2018-02-20T14:07:21.409Z,5444
2018-02-20T14:08:30.244Z,5896
2018-02-20T14:09:39.080Z,9132
2018-02-20T14:10:47.965Z,7168
2018-02-20T14:11:56.879Z,9704
2018-02-20T14:13:05.745Z,11688
2018-02-20T14:14:14.915Z,10580
2018-02-20T14:15:23.752Z,8148
2018-02-20T14:16:32.867Z,8012
2018-02-20T14:17:41.702Z,6608
2018-02-20T14:18:50.536Z,6780
2018-02-20T14:19:59.373Z,8064
2018-02-20T14:21:08.211Z,8208
2018-02-20T14:22:17.487Z,9480
2018-02-20T14:23:26.321Z,9364
2018-02-20T14:24:35.156Z,8848
2018-02-20T14:25:43.990Z,8900
2018-02-20T14:26:52.825Z,9296
2018-02-20T14:28:01.659Z,9780
2018-02-20T14:29:10.494Z,9488
2018-02-20T14:30:19.605Z,8376
2018-02-20T14:31:28.440Z,7724
2018-02-20T14:32:37.424Z,6876
2018-02-20T14:33:46.262Z,5612
2018-02-20T14:34:55.097Z,4984
2018-02-20T14:36:03.932Z,4616
2018-02-20T14:37:12.765Z,4588
2018-02-20T14:38:21.597Z,4904
2018-02-20T14:39:30.432Z,4832
2018-02-20T14:40:39.265Z,5132
2018-02-20T14:41:48.099Z,5768
2018-02-20T14:42:56.933Z,6072
2018-02-20T14:44:05.766Z,7024
2018-02-20T14:45:14.598Z,7620
2018-02-20T14:46:23.433Z,6736
2018-02-20T14:47:32.268Z,6220
2018-02-20T14:48:41.100Z,6024
2018-02-20T14:49:49.933Z,5568
2018-02-20T14:50:58.767Z,5284
2018-02-20T14:52:07.882Z,6076
2018-02-20T14:53:16.992Z,6296
2018-02-20T14:54:26.110Z,6316
2018-02-20T14:55:35.223Z,6156
2018-02-20T14:56:44.330Z,6512
2018-02-20T14:57:53.163Z,7124
2018-02-20T14:59:02.000Z,6868
2018-02-20T15:00:10.837Z,6264
2018-02-20T15:01:19.673Z,6156
2018-02-20T15:02:28.508Z,6820
2018-02-20T15:03:37.344Z,6484
2018-02-20T15:04:46.331Z,5548
2018-02-20T15:05:55.164Z,4928
2018-02-20T15:07:03.997Z,5148
2018-02-20T15:08:12.829Z,5328
2018-02-20T15:09:21.664Z,4804
2018-02-20T15:10:30.499Z,4580
2018-02-20T15:11:39.336Z,4412
2018-02-20T15:12:48.443Z,4216
2018-02-20T15:13:57.281Z,3868
2018-02-20T15:15:06.117Z,4052
2018-02-20T15:16:14.952Z,4044
2018-02-20T15:17:23.787Z,4284
2018-02-20T15:18:32.623Z,4272
2018-02-20T15:19:41.453Z,3868
2018-02-20T15:20:50.317Z,3908
2018-02-20T15:21:59.301Z,4352
2018-02-20T15:23:08.133Z,3988
2018-02-20T15:24:16.968Z,3848
2018-02-20T15:25:25.804Z,3796
2018-02-20T15:26:34.638Z,3556
2018-02-20T15:27:43.776Z,3352
2018-02-20T15:28:52.615Z,3208
2018-02-20T15:30:01.446Z,3212
2018-02-20T15:31:10.280Z,3352
2018-02-20T15:32:19.117Z,3404
2018-02-20T15:33:28.248Z,3500
2018-02-20T15:34:37.084Z,3548
2018-02-20T15:35:45.918Z,3420
2018-02-20T15:36:54.753Z,3364
2018-02-20T15:38:03.587Z,3060
2018-02-20T15:39:12.471Z,2768
2018-02-20T15:40:21.305Z,2408
2018-02-20T15:41:30.422Z,2168
2018-02-20T15:42:39.263Z,2168
2018-02-20T15:43:48.104Z,2212
2018-02-20T15:44:57.579Z,2276
2018-02-20T15:46:06.972Z,2220
2018-02-20T15:47:15.814Z,2044
2018-02-20T15:48:24.648Z,1940
2018-02-20T15:49:33.485Z,1796
2018-02-20T15:50:42.320Z,1736
2018-02-20T15:51:51.429Z,1728
2018-02-20T15:53:00.264Z,1716
2018-02-20T15:54:09.101Z,1656
2018-02-20T15:55:17.935Z,1580
2018-02-20T15:56:27.349Z,1484
2018-02-20T15:57:36.469Z,1404